sensor_id;sensor_type;location;lat;lon;timestamp;temperature;humidity
76040;SHT30;64736;50.462;4.850;2024-02-14T00:00:12;8.81;92.77
76040;SHT30;64736;50.462;4.850;2024-02-14T00:02:43;8.75;92.74
76040;SHT30;64736;50.462;4.850;2024-02-14T00:05:09;8.78;92.63
76040;SHT30;64736;50.462;4.850;2024-02-14T00:07:39;8.84;92.31
76040;SHT30;64736;50.462;4.850;2024-02-14T00:10:08;8.85;92.13
76040;SHT30;64736;50.462;4.850;2024-02-14T00:12:35;8.87;92.16
76040;SHT30;64736;50.462;4.850;2024-02-14T00:15:05;8.89;92.07
76040;SHT30;64736;50.462;4.850;2024-02-14T00:17:34;8.95;91.97
76040;SHT30;64736;50.462;4.850;2024-02-14T00:20:01;8.93;91.78
76040;SHT30;64736;50.462;4.850;2024-02-14T00:22:26;8.99;91.53
76040;SHT30;64736;50.462;4.850;2024-02-14T00:24:53;8.95;91.25
76040;SHT30;64736;50.462;4.850;2024-02-14T00:27:18;9.01;91.25
76040;SHT30;64736;50.462;4.850;2024-02-14T00:29:44;8.99;91.17
76040;SHT30;64736;50.462;4.850;2024-02-14T00:32:15;9.01;91.31
76040;SHT30;64736;50.462;4.850;2024-02-14T00:34:41;9.01;91.78
76040;SHT30;64736;50.462;4.850;2024-02-14T00:37:06;8.95;91.78
76040;SHT30;64736;50.462;4.850;2024-02-14T00:39:32;8.98;91.55
76040;SHT30;64736;50.462;4.850;2024-02-14T00:41:58;9.02;91.46
76040;SHT30;64736;50.462;4.850;2024-02-14T00:44:24;9.04;91.25
76040;SHT30;64736;50.462;4.850;2024-02-14T00:46:59;9.07;91.26
76040;SHT30;64736;50.462;4.850;2024-02-14T00:49:26;9.07;91.32
76040;SHT30;64736;50.462;4.850;2024-02-14T00:51:51;9.08;91.35
76040;SHT30;64736;50.462;4.850;2024-02-14T00:54:17;9.08;91.28
76040;SHT30;64736;50.462;4.850;2024-02-14T00:56:43;9.12;91.34
76040;SHT30;64736;50.462;4.850;2024-02-14T00:59:09;9.12;91.33
76040;SHT30;64736;50.462;4.850;2024-02-14T01:01:35;9.11;91.40
76040;SHT30;64736;50.462;4.850;2024-02-14T01:04:01;9.15;91.33
76040;SHT30;64736;50.462;4.850;2024-02-14T01:06:30;9.16;91.21
76040;SHT30;64736;50.462;4.850;2024-02-14T01:08:56;9.16;91.23
76040;SHT30;64736;50.462;4.850;2024-02-14T01:11:22;9.20;91.12
76040;SHT30;64736;50.462;4.850;2024-02-14T01:13:47;9.19;91.15
76040;SHT30;64736;50.462;4.850;2024-02-14T01:16:13;9.22;91.06
76040;SHT30;64736;50.462;4.850;2024-02-14T01:18:39;9.23;90.95
76040;SHT30;64736;50.462;4.850;2024-02-14T01:21:05;9.25;90.98
76040;SHT30;64736;50.462;4.850;2024-02-14T01:23:32;9.26;90.98
76040;SHT30;64736;50.462;4.850;2024-02-14T01:25:58;9.28;90.98
76040;SHT30;64736;50.462;4.850;2024-02-14T01:28:24;9.28;90.96
76040;SHT30;64736;50.462;4.850;2024-02-14T01:30:49;9.30;91.04
76040;SHT30;64736;50.462;4.850;2024-02-14T01:33:16;9.29;90.87
76040;SHT30;64736;50.462;4.850;2024-02-14T01:35:42;9.30;90.85
76040;SHT30;64736;50.462;4.850;2024-02-14T01:38:08;9.33;90.76
76040;SHT30;64736;50.462;4.850;2024-02-14T01:40:34;9.35;90.84
76040;SHT30;64736;50.462;4.850;2024-02-14T01:42:59;9.35;90.78
76040;SHT30;64736;50.462;4.850;2024-02-14T01:45:26;9.40;90.86
76040;SHT30;64736;50.462;4.850;2024-02-14T01:47:53;9.37;90.75
76040;SHT30;64736;50.462;4.850;2024-02-14T01:50:19;9.37;90.69
76040;SHT30;64736;50.462;4.850;2024-02-14T01:52:56;9.37;90.71
76040;SHT30;64736;50.462;4.850;2024-02-14T01:55:23;9.37;90.70
76040;SHT30;64736;50.462;4.850;2024-02-14T01:57:48;9.33;90.89
76040;SHT30;64736;50.462;4.850;2024-02-14T02:00:15;9.37;90.87
76040;SHT30;64736;50.462;4.850;2024-02-14T02:02:44;9.35;91.66
76040;SHT30;64736;50.462;4.850;2024-02-14T02:05:09;9.30;92.92
76040;SHT30;64736;50.462;4.850;2024-02-14T02:07:35;9.18;93.03
76040;SHT30;64736;50.462;4.850;2024-02-14T02:10:05;9.14;93.21
76040;SHT30;64736;50.462;4.850;2024-02-14T02:12:31;9.14;93.94
76040;SHT30;64736;50.462;4.850;2024-02-14T02:14:58;9.12;94.40
76040;SHT30;64736;50.462;4.850;2024-02-14T02:17:24;9.05;95.10
76040;SHT30;64736;50.462;4.850;2024-02-14T02:19:52;8.98;94.66
76040;SHT30;64736;50.462;4.850;2024-02-14T02:22:19;8.99;94.85
76040;SHT30;64736;50.462;4.850;2024-02-14T02:24:45;8.98;94.26
76040;SHT30;64736;50.462;4.850;2024-02-14T02:27:11;9.02;94.16
76040;SHT30;64736;50.462;4.850;2024-02-14T02:29:39;9.05;94.11
76040;SHT30;64736;50.462;4.850;2024-02-14T02:32:05;9.12;94.07
76040;SHT30;64736;50.462;4.850;2024-02-14T02:34:31;9.08;94.69
76040;SHT30;64736;50.462;4.850;2024-02-14T02:36:57;9.04;94.82
76040;SHT30;64736;50.462;4.850;2024-02-14T02:39:23;9.04;94.78
76040;SHT30;64736;50.462;4.850;2024-02-14T02:41:49;9.02;95.19
76040;SHT30;64736;50.462;4.850;2024-02-14T02:44:15;8.98;95.55
76040;SHT30;64736;50.462;4.850;2024-02-14T02:46:41;8.95;95.49
76040;SHT30;64736;50.462;4.850;2024-02-14T02:49:07;8.95;95.37
76040;SHT30;64736;50.462;4.850;2024-02-14T02:51:32;8.95;94.95
76040;SHT30;64736;50.462;4.850;2024-02-14T02:53:58;9.02;94.73
76040;SHT30;64736;50.462;4.850;2024-02-14T02:56:24;9.05;94.43
76040;SHT30;64736;50.462;4.850;2024-02-14T02:58:55;9.09;94.06
76040;SHT30;64736;50.462;4.850;2024-02-14T03:01:21;9.08;93.99
76040;SHT30;64736;50.462;4.850;2024-02-14T03:03:49;9.12;93.85
76040;SHT30;64736;50.462;4.850;2024-02-14T03:06:15;9.14;93.80
76040;SHT30;64736;50.462;4.850;2024-02-14T03:08:41;9.20;93.60
76040;SHT30;64736;50.462;4.850;2024-02-14T03:11:07;9.23;93.52
76040;SHT30;64736;50.462;4.850;2024-02-14T03:13:32;9.26;93.53
76040;SHT30;64736;50.462;4.850;2024-02-14T03:15:59;9.23;93.68
76040;SHT30;64736;50.462;4.850;2024-02-14T03:18:25;9.28;93.47
76040;SHT30;64736;50.462;4.850;2024-02-14T03:20:51;9.29;93.55
76040;SHT30;64736;50.462;4.850;2024-02-14T03:23:19;9.30;93.52
76040;SHT30;64736;50.462;4.850;2024-02-14T03:25:45;9.33;93.44
76040;SHT30;64736;50.462;4.850;2024-02-14T03:28:11;9.35;93.63
76040;SHT30;64736;50.462;4.850;2024-02-14T03:30:38;9.32;93.69
76040;SHT30;64736;50.462;4.850;2024-02-14T03:33:05;9.30;93.79
76040;SHT30;64736;50.462;4.850;2024-02-14T03:35:33;9.33;93.78
76040;SHT30;64736;50.462;4.850;2024-02-14T03:38:02;9.33;93.82
76040;SHT30;64736;50.462;4.850;2024-02-14T03:40:28;9.35;93.77
76040;SHT30;64736;50.462;4.850;2024-02-14T03:42:56;9.37;95.25
76040;SHT30;64736;50.462;4.850;2024-02-14T03:45:22;9.30;95.89
76040;SHT30;64736;50.462;4.850;2024-02-14T03:47:48;9.26;96.15
76040;SHT30;64736;50.462;4.850;2024-02-14T03:50:14;9.19;96.50
76040;SHT30;64736;50.462;4.850;2024-02-14T03:52:40;9.18;96.81
76040;SHT30;64736;50.462;4.850;2024-02-14T03:55:08;9.16;96.91
76040;SHT30;64736;50.462;4.850;2024-02-14T03:57:40;9.12;96.91
76040;SHT30;64736;50.462;4.850;2024-02-14T04:00:06;9.12;96.75
76040;SHT30;64736;50.462;4.850;2024-02-14T04:02:35;9.14;96.89
76040;SHT30;64736;50.462;4.850;2024-02-14T04:05:01;9.15;96.98
76040;SHT30;64736;50.462;4.850;2024-02-14T04:07:28;9.11;96.95
76040;SHT30;64736;50.462;4.850;2024-02-14T04:09:55;9.12;96.91
76040;SHT30;64736;50.462;4.850;2024-02-14T04:12:21;9.14;96.79
76040;SHT30;64736;50.462;4.850;2024-02-14T04:14:47;9.18;96.75
76040;SHT30;64736;50.462;4.850;2024-02-14T04:17:13;9.18;96.73
76040;SHT30;64736;50.462;4.850;2024-02-14T04:19:39;9.22;96.74
76040;SHT30;64736;50.462;4.850;2024-02-14T04:22:05;9.23;96.58
76040;SHT30;64736;50.462;4.850;2024-02-14T04:24:35;9.28;96.46
76040;SHT30;64736;50.462;4.850;2024-02-14T04:27:01;9.32;96.33
76040;SHT30;64736;50.462;4.850;2024-02-14T04:29:30;9.33;96.30
76040;SHT30;64736;50.462;4.850;2024-02-14T04:31:59;9.35;96.16
76040;SHT30;64736;50.462;4.850;2024-02-14T04:34:26;9.35;96.11
76040;SHT30;64736;50.462;4.850;2024-02-14T04:36:51;9.39;96.00
76040;SHT30;64736;50.462;4.850;2024-02-14T04:39:17;9.43;95.96
76040;SHT30;64736;50.462;4.850;2024-02-14T04:41:43;9.46;95.72
76040;SHT30;64736;50.462;4.850;2024-02-14T04:44:09;9.46;95.62
76040;SHT30;64736;50.462;4.850;2024-02-14T04:46:35;9.47;95.55
76040;SHT30;64736;50.462;4.850;2024-02-14T04:49:01;9.46;95.57
76040;SHT30;64736;50.462;4.850;2024-02-14T04:51:30;9.54;95.19
76040;SHT30;64736;50.462;4.850;2024-02-14T04:53:57;9.56;95.15
76040;SHT30;64736;50.462;4.850;2024-02-14T04:56:27;9.48;95.16
76040;SHT30;64736;50.462;4.850;2024-02-14T04:58:53;9.56;95.02
76040;SHT30;64736;50.462;4.850;2024-02-14T05:01:20;9.60;94.90
76040;SHT30;64736;50.462;4.850;2024-02-14T05:03:46;9.63;94.80
76040;SHT30;64736;50.462;4.850;2024-02-14T05:06:12;9.67;94.77
76040;SHT30;64736;50.462;4.850;2024-02-14T05:08:37;9.66;94.89
76040;SHT30;64736;50.462;4.850;2024-02-14T05:11:03;9.66;95.78
76040;SHT30;64736;50.462;4.850;2024-02-14T05:13:30;9.58;96.29
76040;SHT30;64736;50.462;4.850;2024-02-14T05:15:56;9.50;96.48
76040;SHT30;64736;50.462;4.850;2024-02-14T05:18:22;9.47;96.78
76040;SHT30;64736;50.462;4.850;2024-02-14T05:20:48;9.42;96.71
76040;SHT30;64736;50.462;4.850;2024-02-14T05:23:15;9.43;96.84
76040;SHT30;64736;50.462;4.850;2024-02-14T05:25:43;9.44;96.72
76040;SHT30;64736;50.462;4.850;2024-02-14T05:28:09;9.44;96.62
76040;SHT30;64736;50.462;4.850;2024-02-14T05:30:42;9.47;96.61
76040;SHT30;64736;50.462;4.850;2024-02-14T05:33:08;9.44;96.36
76040;SHT30;64736;50.462;4.850;2024-02-14T05:35:34;9.50;96.51
76040;SHT30;64736;50.462;4.850;2024-02-14T05:37:59;9.54;96.40
76040;SHT30;64736;50.462;4.850;2024-02-14T05:40:25;9.57;96.22
76040;SHT30;64736;50.462;4.850;2024-02-14T05:42:51;9.53;95.92
76040;SHT30;64736;50.462;4.850;2024-02-14T05:45:17;9.66;96.11
76040;SHT30;64736;50.462;4.850;2024-02-14T05:47:43;9.64;95.82
76040;SHT30;64736;50.462;4.850;2024-02-14T05:50:09;9.69;95.80
76040;SHT30;64736;50.462;4.850;2024-02-14T05:52:37;9.71;95.62
76040;SHT30;64736;50.462;4.850;2024-02-14T05:55:03;9.74;95.52
76040;SHT30;64736;50.462;4.850;2024-02-14T05:57:29;9.76;95.62
76040;SHT30;64736;50.462;4.850;2024-02-14T05:59:55;9.76;95.37
76040;SHT30;64736;50.462;4.850;2024-02-14T06:02:21;9.78;95.29
76040;SHT30;64736;50.462;4.850;2024-02-14T06:04:47;9.84;95.26
76040;SHT30;64736;50.462;4.850;2024-02-14T06:07:12;9.87;95.11
76040;SHT30;64736;50.462;4.850;2024-02-14T06:09:38;9.88;94.94
76040;SHT30;64736;50.462;4.850;2024-02-14T06:12:04;9.85;94.92
76040;SHT30;64736;50.462;4.850;2024-02-14T06:14:30;9.81;94.70
76040;SHT30;64736;50.462;4.850;2024-02-14T06:17:00;9.88;94.79
76040;SHT30;64736;50.462;4.850;2024-02-14T06:19:27;9.95;94.55
76040;SHT30;64736;50.462;4.850;2024-02-14T06:21:53;9.97;94.48
76040;SHT30;64736;50.462;4.850;2024-02-14T06:24:18;9.95;94.52
76040;SHT30;64736;50.462;4.850;2024-02-14T06:26:45;9.98;94.39
76040;SHT30;64736;50.462;4.850;2024-02-14T06:29:11;10.01;94.45
76040;SHT30;64736;50.462;4.850;2024-02-14T06:31:36;10.01;94.81
76040;SHT30;64736;50.462;4.850;2024-02-14T06:34:02;9.98;94.94
76040;SHT30;64736;50.462;4.850;2024-02-14T06:36:28;9.95;94.93
76040;SHT30;64736;50.462;4.850;2024-02-14T06:38:54;9.99;94.70
76040;SHT30;64736;50.462;4.850;2024-02-14T06:41:19;10.04;94.44
76040;SHT30;64736;50.462;4.850;2024-02-14T06:43:48;9.99;94.40
76040;SHT30;64736;50.462;4.850;2024-02-14T06:46:14;10.04;94.12
76040;SHT30;64736;50.462;4.850;2024-02-14T06:48:40;10.02;94.09
76040;SHT30;64736;50.462;4.850;2024-02-14T06:51:06;10.06;94.09
76040;SHT30;64736;50.462;4.850;2024-02-14T06:53:32;10.08;94.10
76040;SHT30;64736;50.462;4.850;2024-02-14T06:55:58;10.09;94.13
76040;SHT30;64736;50.462;4.850;2024-02-14T06:58:24;10.08;94.28
76040;SHT30;64736;50.462;4.850;2024-02-14T07:00:49;10.09;94.07
76040;SHT30;64736;50.462;4.850;2024-02-14T07:03:15;10.14;93.92
76040;SHT30;64736;50.462;4.850;2024-02-14T07:05:41;10.15;94.07
76040;SHT30;64736;50.462;4.850;2024-02-14T07:08:07;10.14;93.98
76040;SHT30;64736;50.462;4.850;2024-02-14T07:10:33;10.18;94.00
76040;SHT30;64736;50.462;4.850;2024-02-14T07:12:59;10.01;94.35
76040;SHT30;64736;50.462;4.850;2024-02-14T07:15:24;10.18;94.03
76040;SHT30;64736;50.462;4.850;2024-02-14T07:17:57;10.23;93.72
76040;SHT30;64736;50.462;4.850;2024-02-14T07:20:24;10.05;94.09
76040;SHT30;64736;50.462;4.850;2024-02-14T07:22:52;10.22;93.85
76040;SHT30;64736;50.462;4.850;2024-02-14T07:25:22;10.28;93.67
76040;SHT30;64736;50.462;4.850;2024-02-14T07:27:49;10.31;93.36
76040;SHT30;64736;50.462;4.850;2024-02-14T07:30:18;10.31;93.39
76040;SHT30;64736;50.462;4.850;2024-02-14T07:32:44;10.33;93.31
76040;SHT30;64736;50.462;4.850;2024-02-14T07:35:10;10.29;93.46
76040;SHT30;64736;50.462;4.850;2024-02-14T07:37:36;10.32;93.29
76040;SHT30;64736;50.462;4.850;2024-02-14T07:40:03;10.33;93.20
76040;SHT30;64736;50.462;4.850;2024-02-14T07:42:28;10.33;93.16
76040;SHT30;64736;50.462;4.850;2024-02-14T07:44:54;10.32;93.30
76040;SHT30;64736;50.462;4.850;2024-02-14T07:47:22;10.33;93.19
76040;SHT30;64736;50.462;4.850;2024-02-14T07:49:48;10.39;93.04
76040;SHT30;64736;50.462;4.850;2024-02-14T07:52:14;10.41;93.09
76040;SHT30;64736;50.462;4.850;2024-02-14T07:54:40;10.41;93.18
76040;SHT30;64736;50.462;4.850;2024-02-14T07:57:06;10.46;93.13
76040;SHT30;64736;50.462;4.850;2024-02-14T07:59:32;10.50;92.82
76040;SHT30;64736;50.462;4.850;2024-02-14T08:01:58;10.50;92.81
76040;SHT30;64736;50.462;4.850;2024-02-14T08:04:24;10.50;92.78
76040;SHT30;64736;50.462;4.850;2024-02-14T08:06:50;10.52;92.77
76040;SHT30;64736;50.462;4.850;2024-02-14T08:09:15;10.53;93.31
76040;SHT30;64736;50.462;4.850;2024-02-14T08:11:41;10.49;93.31
76040;SHT30;64736;50.462;4.850;2024-02-14T08:14:07;10.56;93.22
76040;SHT30;64736;50.462;4.850;2024-02-14T08:16:33;10.59;93.18
76040;SHT30;64736;50.462;4.850;2024-02-14T08:18:58;10.56;93.65
76040;SHT30;64736;50.462;4.850;2024-02-14T08:21:25;10.59;93.86
76040;SHT30;64736;50.462;4.850;2024-02-14T08:23:55;10.56;94.15
76040;SHT30;64736;50.462;4.850;2024-02-14T08:26:21;10.53;94.32
76040;SHT30;64736;50.462;4.850;2024-02-14T08:28:48;10.62;94.19
76040;SHT30;64736;50.462;4.850;2024-02-14T08:31:14;10.63;93.95
76040;SHT30;64736;50.462;4.850;2024-02-14T08:33:41;10.60;94.98
76040;SHT30;64736;50.462;4.850;2024-02-14T08:36:07;10.53;95.78
76040;SHT30;64736;50.462;4.850;2024-02-14T08:38:36;10.45;96.18
76040;SHT30;64736;50.462;4.850;2024-02-14T08:41:02;10.46;96.64
76040;SHT30;64736;50.462;4.850;2024-02-14T08:43:29;10.42;96.77
76040;SHT30;64736;50.462;4.850;2024-02-14T08:45:55;10.33;96.57
76040;SHT30;64736;50.462;4.850;2024-02-14T08:48:22;10.29;96.70
76040;SHT30;64736;50.462;4.850;2024-02-14T08:50:47;10.35;96.99
76040;SHT30;64736;50.462;4.850;2024-02-14T08:53:14;10.33;97.12
76040;SHT30;64736;50.462;4.850;2024-02-14T08:55:40;10.28;97.24
76040;SHT30;64736;50.462;4.850;2024-02-14T08:58:06;10.26;97.43
76040;SHT30;64736;50.462;4.850;2024-02-14T09:00:32;10.22;97.17
76040;SHT30;64736;50.462;4.850;2024-02-14T09:03:03;10.32;97.42
76040;SHT30;64736;50.462;4.850;2024-02-14T09:05:28;10.38;97.25
76040;SHT30;64736;50.462;4.850;2024-02-14T09:07:54;10.42;97.20
76040;SHT30;64736;50.462;4.850;2024-02-14T09:10:20;10.42;97.13
76040;SHT30;64736;50.462;4.850;2024-02-14T09:12:46;10.36;97.02
76040;SHT30;64736;50.462;4.850;2024-02-14T09:15:13;10.38;97.12
76040;SHT30;64736;50.462;4.850;2024-02-14T09:17:39;10.41;97.14
76040;SHT30;64736;50.462;4.850;2024-02-14T09:20:10;10.42;97.12
76040;SHT30;64736;50.462;4.850;2024-02-14T09:22:36;10.41;97.16
76040;SHT30;64736;50.462;4.850;2024-02-14T09:25:02;10.35;97.04
76040;SHT30;64736;50.462;4.850;2024-02-14T09:27:31;10.35;97.15
76040;SHT30;64736;50.462;4.850;2024-02-14T09:29:58;10.33;97.34
76040;SHT30;64736;50.462;4.850;2024-02-14T09:32:24;10.35;97.63
76040;SHT30;64736;50.462;4.850;2024-02-14T09:34:50;10.28;97.72
76040;SHT30;64736;50.462;4.850;2024-02-14T09:37:16;10.19;97.86
76040;SHT30;64736;50.462;4.850;2024-02-14T09:39:42;10.23;97.95
76040;SHT30;64736;50.462;4.850;2024-02-14T09:42:13;10.28;97.91
76040;SHT30;64736;50.462;4.850;2024-02-14T09:44:43;10.32;97.97
76040;SHT30;64736;50.462;4.850;2024-02-14T09:47:09;10.33;97.91
76040;SHT30;64736;50.462;4.850;2024-02-14T09:49:35;10.36;97.94
76040;SHT30;64736;50.462;4.850;2024-02-14T09:52:02;10.39;97.87
76040;SHT30;64736;50.462;4.850;2024-02-14T09:54:29;10.49;97.87
76040;SHT30;64736;50.462;4.850;2024-02-14T09:56:57;10.49;97.74
76040;SHT30;64736;50.462;4.850;2024-02-14T09:59:24;10.48;97.82
76040;SHT30;64736;50.462;4.850;2024-02-14T10:01:50;10.53;97.67
76040;SHT30;64736;50.462;4.850;2024-02-14T10:04:18;10.57;97.70
76040;SHT30;64736;50.462;4.850;2024-02-14T10:06:45;10.69;97.74
76040;SHT30;64736;50.462;4.850;2024-02-14T10:09:10;10.60;97.55
76040;SHT30;64736;50.462;4.850;2024-02-14T10:11:37;10.63;97.68
76040;SHT30;64736;50.462;4.850;2024-02-14T10:14:06;10.59;97.75
76040;SHT30;64736;50.462;4.850;2024-02-14T10:16:35;10.70;97.60
76040;SHT30;64736;50.462;4.850;2024-02-14T10:19:01;10.74;97.55
76040;SHT30;64736;50.462;4.850;2024-02-14T10:21:29;10.79;97.57
76040;SHT30;64736;50.462;4.850;2024-02-14T10:24:01;10.80;97.52
76040;SHT30;64736;50.462;4.850;2024-02-14T10:26:30;10.76;97.28
76040;SHT30;64736;50.462;4.850;2024-02-14T10:28:58;10.74;97.36
76040;SHT30;64736;50.462;4.850;2024-02-14T10:31:25;10.80;97.33
76040;SHT30;64736;50.462;4.850;2024-02-14T10:33:52;10.79;97.63
76040;SHT30;64736;50.462;4.850;2024-02-14T10:36:19;10.70;97.72
76040;SHT30;64736;50.462;4.850;2024-02-14T10:38:46;10.73;97.85
76040;SHT30;64736;50.462;4.850;2024-02-14T10:41:16;10.77;98.03
76040;SHT30;64736;50.462;4.850;2024-02-14T10:43:42;10.70;97.95
76040;SHT30;64736;50.462;4.850;2024-02-14T10:46:20;10.66;97.87
76040;SHT30;64736;50.462;4.850;2024-02-14T10:48:48;10.69;98.09
76040;SHT30;64736;50.462;4.850;2024-02-14T10:51:16;10.73;98.26
76040;SHT30;64736;50.462;4.850;2024-02-14T10:53:45;10.74;98.28
76040;SHT30;64736;50.462;4.850;2024-02-14T10:56:18;10.81;98.37
76040;SHT30;64736;50.462;4.850;2024-02-14T10:58:48;10.89;98.30
76040;SHT30;64736;50.462;4.850;2024-02-14T11:01:15;10.90;98.34
76040;SHT30;64736;50.462;4.850;2024-02-14T11:03:44;10.91;98.17
76040;SHT30;64736;50.462;4.850;2024-02-14T11:06:16;10.96;98.28
76040;SHT30;64736;50.462;4.850;2024-02-14T11:08:42;10.93;98.23
76040;SHT30;64736;50.462;4.850;2024-02-14T11:11:19;10.94;98.22
76040;SHT30;64736;50.462;4.850;2024-02-14T11:13:45;10.93;98.16
76040;SHT30;64736;50.462;4.850;2024-02-14T11:16:10;10.96;98.22
76040;SHT30;64736;50.462;4.850;2024-02-14T11:18:40;10.96;98.22
76040;SHT30;64736;50.462;4.850;2024-02-14T11:21:16;10.94;97.96
76040;SHT30;64736;50.462;4.850;2024-02-14T11:23:53;11.00;98.22
76040;SHT30;64736;50.462;4.850;2024-02-14T11:26:19;11.01;98.19
76040;SHT30;64736;50.462;4.850;2024-02-14T11:28:45;10.98;98.35
76040;SHT30;64736;50.462;4.850;2024-02-14T11:31:17;11.07;98.07
76040;SHT30;64736;50.462;4.850;2024-02-14T11:33:43;11.11;98.14
76040;SHT30;64736;50.462;4.850;2024-02-14T11:36:12;11.07;98.03
76040;SHT30;64736;50.462;4.850;2024-02-14T11:38:41;11.03;98.06
76040;SHT30;64736;50.462;4.850;2024-02-14T11:41:06;11.11;97.93
76040;SHT30;64736;50.462;4.850;2024-02-14T11:43:32;11.17;98.14
76040;SHT30;64736;50.462;4.850;2024-02-14T11:45:58;11.19;98.09
76040;SHT30;64736;50.462;4.850;2024-02-14T11:48:24;11.22;98.03
76040;SHT30;64736;50.462;4.850;2024-02-14T11:50:51;11.25;97.90
76040;SHT30;64736;50.462;4.850;2024-02-14T11:53:17;11.28;97.98
76040;SHT30;64736;50.462;4.850;2024-02-14T11:55:45;11.29;97.91
76040;SHT30;64736;50.462;4.850;2024-02-14T11:58:13;11.34;97.94
76040;SHT30;64736;50.462;4.850;2024-02-14T12:00:44;11.34;97.94
76040;SHT30;64736;50.462;4.850;2024-02-14T12:03:12;11.40;97.90
76040;SHT30;64736;50.462;4.850;2024-02-14T12:05:41;11.38;97.75
76040;SHT30;64736;50.462;4.850;2024-02-14T12:08:10;11.43;97.84
76040;SHT30;64736;50.462;4.850;2024-02-14T12:10:36;11.43;97.59
76040;SHT30;64736;50.462;4.850;2024-02-14T12:13:08;11.54;97.79
76040;SHT30;64736;50.462;4.850;2024-02-14T12:15:39;11.52;97.60
76040;SHT30;64736;50.462;4.850;2024-02-14T12:18:05;11.52;97.73
76040;SHT30;64736;50.462;4.850;2024-02-14T12:20:31;11.54;97.65
76040;SHT30;64736;50.462;4.850;2024-02-14T12:22:58;11.56;97.38
76040;SHT30;64736;50.462;4.850;2024-02-14T12:25:25;11.62;97.59
76040;SHT30;64736;50.462;4.850;2024-02-14T12:27:53;11.59;97.48
76040;SHT30;64736;50.462;4.850;2024-02-14T12:30:18;11.62;97.50
76040;SHT30;64736;50.462;4.850;2024-02-14T12:32:45;11.66;97.52
76040;SHT30;64736;50.462;4.850;2024-02-14T12:35:11;11.63;97.40
76040;SHT30;64736;50.462;4.850;2024-02-14T12:37:37;11.72;97.59
76040;SHT30;64736;50.462;4.850;2024-02-14T12:40:04;11.75;97.56
76040;SHT30;64736;50.462;4.850;2024-02-14T12:42:31;11.73;97.69
76040;SHT30;64736;50.462;4.850;2024-02-14T12:44:57;11.72;97.79
76040;SHT30;64736;50.462;4.850;2024-02-14T12:47:24;11.69;97.89
76040;SHT30;64736;50.462;4.850;2024-02-14T12:49:51;11.62;97.88
76040;SHT30;64736;50.462;4.850;2024-02-14T12:52:16;11.61;98.00
76040;SHT30;64736;50.462;4.850;2024-02-14T12:54:43;11.63;98.10
76040;SHT30;64736;50.462;4.850;2024-02-14T12:57:09;11.62;98.04
76040;SHT30;64736;50.462;4.850;2024-02-14T12:59:35;11.62;98.03
76040;SHT30;64736;50.462;4.850;2024-02-14T13:02:00;11.66;98.24
76040;SHT30;64736;50.462;4.850;2024-02-14T13:07:00;11.63;98.27
76040;SHT30;64736;50.462;4.850;2024-02-14T13:09:26;11.63;98.28
76040;SHT30;64736;50.462;4.850;2024-02-14T13:11:51;11.65;98.31
76040;SHT30;64736;50.462;4.850;2024-02-14T13:14:17;11.62;98.32
76040;SHT30;64736;50.462;4.850;2024-02-14T13:16:43;11.69;98.30
76040;SHT30;64736;50.462;4.850;2024-02-14T13:19:09;11.72;98.35
76040;SHT30;64736;50.462;4.850;2024-02-14T13:21:34;11.73;98.38
76040;SHT30;64736;50.462;4.850;2024-02-14T13:24:00;11.72;98.31
76040;SHT30;64736;50.462;4.850;2024-02-14T13:26:26;11.76;98.31
76040;SHT30;64736;50.462;4.850;2024-02-14T13:28:53;11.76;98.33
76040;SHT30;64736;50.462;4.850;2024-02-14T13:31:20;11.82;98.29
76040;SHT30;64736;50.462;4.850;2024-02-14T13:33:45;11.77;98.31
76040;SHT30;64736;50.462;4.850;2024-02-14T13:36:11;11.82;98.40
76040;SHT30;64736;50.462;4.850;2024-02-14T13:38:37;11.79;98.42
76040;SHT30;64736;50.462;4.850;2024-02-14T13:41:03;11.80;98.37
76040;SHT30;64736;50.462;4.850;2024-02-14T13:43:29;11.76;98.37
76040;SHT30;64736;50.462;4.850;2024-02-14T13:45:55;11.75;98.44
76040;SHT30;64736;50.462;4.850;2024-02-14T13:48:21;11.70;98.34
76040;SHT30;64736;50.462;4.850;2024-02-14T13:50:47;11.72;98.52
76040;SHT30;64736;50.462;4.850;2024-02-14T13:53:15;11.73;98.54
76040;SHT30;64736;50.462;4.850;2024-02-14T13:55:43;11.76;98.57
76040;SHT30;64736;50.462;4.850;2024-02-14T13:58:08;11.73;98.52
76040;SHT30;64736;50.462;4.850;2024-02-14T14:00:39;11.75;98.60
76040;SHT30;64736;50.462;4.850;2024-02-14T14:03:05;11.76;98.51
76040;SHT30;64736;50.462;4.850;2024-02-14T14:05:31;11.75;98.60
76040;SHT30;64736;50.462;4.850;2024-02-14T14:07:56;11.75;98.52
76040;SHT30;64736;50.462;4.850;2024-02-14T14:10:25;11.76;98.60
76040;SHT30;64736;50.462;4.850;2024-02-14T14:12:52;11.73;98.35
76040;SHT30;64736;50.462;4.850;2024-02-14T14:15:17;11.75;98.62
76040;SHT30;64736;50.462;4.850;2024-02-14T14:17:43;11.75;98.57
76040;SHT30;64736;50.462;4.850;2024-02-14T14:20:10;11.76;98.62
76040;SHT30;64736;50.462;4.850;2024-02-14T14:22:35;11.75;98.69
76040;SHT30;64736;50.462;4.850;2024-02-14T14:25:04;11.72;98.70
76040;SHT30;64736;50.462;4.850;2024-02-14T14:27:31;11.79;98.74
76040;SHT30;64736;50.462;4.850;2024-02-14T14:29:57;11.77;98.67
76040;SHT30;64736;50.462;4.850;2024-02-14T14:32:23;11.80;98.73
76040;SHT30;64736;50.462;4.850;2024-02-14T14:34:48;11.76;98.71
76040;SHT30;64736;50.462;4.850;2024-02-14T14:37:14;11.77;98.77
76040;SHT30;64736;50.462;4.850;2024-02-14T14:39:40;11.80;98.78
76040;SHT30;64736;50.462;4.850;2024-02-14T14:42:07;11.80;98.75
76040;SHT30;64736;50.462;4.850;2024-02-14T14:44:33;11.79;98.74
76040;SHT30;64736;50.462;4.850;2024-02-14T14:47:00;11.83;98.79
76040;SHT30;64736;50.462;4.850;2024-02-14T14:49:26;11.82;98.78
76040;SHT30;64736;50.462;4.850;2024-02-14T14:51:51;11.85;98.79
76040;SHT30;64736;50.462;4.850;2024-02-14T14:54:17;11.86;98.78
76040;SHT30;64736;50.462;4.850;2024-02-14T14:56:43;11.86;98.80
76040;SHT30;64736;50.462;4.850;2024-02-14T14:59:10;11.85;98.77
76040;SHT30;64736;50.462;4.850;2024-02-14T15:01:36;11.87;98.77
76040;SHT30;64736;50.462;4.850;2024-02-14T15:04:02;11.85;98.75
76040;SHT30;64736;50.462;4.850;2024-02-14T15:06:28;11.86;98.71
76040;SHT30;64736;50.462;4.850;2024-02-14T15:08:54;11.90;98.73
76040;SHT30;64736;50.462;4.850;2024-02-14T15:11:19;11.90;98.72
76040;SHT30;64736;50.462;4.850;2024-02-14T15:13:49;11.89;98.66
76040;SHT30;64736;50.462;4.850;2024-02-14T15:16:15;11.89;98.69
76040;SHT30;64736;50.462;4.850;2024-02-14T15:18:40;11.91;98.73
76040;SHT30;64736;50.462;4.850;2024-02-14T15:21:10;11.90;98.70
76040;SHT30;64736;50.462;4.850;2024-02-14T15:23:36;11.91;98.69
76040;SHT30;64736;50.462;4.850;2024-02-14T15:26:02;11.94;98.74
76040;SHT30;64736;50.462;4.850;2024-02-14T15:28:29;11.94;98.75
76040;SHT30;64736;50.462;4.850;2024-02-14T15:30:58;11.94;98.68
76040;SHT30;64736;50.462;4.850;2024-02-14T15:33:43;11.93;98.72
76040;SHT30;64736;50.462;4.850;2024-02-14T15:36:09;11.94;98.64